sensor_id;sensor_type;location;lat;lon;timestamp;P1;durP1;ratioP1;P2;durP2;ratioP2
37983;SDS011;64625;50.882;4.376;2023-01-10T00:01:34;21.70;;;3.90;;
37983;SDS011;64625;50.882;4.376;2023-01-10T00:04:00;18.25;;;3.78;;
37983;SDS011;64625;50.882;4.376;2023-01-10T00:06:26;19.20;;;4.63;;
37983;SDS011;64625;50.882;4.376;2023-01-10T00:08:52;19.55;;;4.30;;
37983;SDS011;64625;50.882;4.376;2023-01-10T00:11:17;15.02;;;5.28;;
37983;SDS011;64625;50.882;4.376;2023-01-10T00:14:02;28.80;;;4.70;;
37983;SDS011;64625;50.882;4.376;2023-01-10T00:16:27;15.60;;;4.15;;
37983;SDS011;64625;50.882;4.376;2023-01-10T00:18:53;20.23;;;5.50;;
37983;SDS011;64625;50.882;4.376;2023-01-10T00:21:19;14.65;;;3.17;;
37983;SDS011;64625;50.882;4.376;2023-01-10T00:23:45;22.80;;;4.18;;
37983;SDS011;64625;50.882;4.376;2023-01-10T00:26:15;17.50;;;4.53;;
37983;SDS011;64625;50.882;4.376;2023-01-10T00:28:41;16.45;;;4.53;;
37983;SDS011;64625;50.882;4.376;2023-01-10T00:31:07;19.20;;;3.97;;
37983;SDS011;64625;50.882;4.376;2023-01-10T00:33:35;20.02;;;3.60;;
37983;SDS011;64625;50.882;4.376;2023-01-10T00:36:05;29.70;;;5.97;;
37983;SDS011;64625;50.882;4.376;2023-01-10T00:38:32;26.63;;;4.72;;
37983;SDS011;64625;50.882;4.376;2023-01-10T00:40:59;21.95;;;4.75;;
37983;SDS011;64625;50.882;4.376;2023-01-10T00:43:25;19.88;;;3.58;;
37983;SDS011;64625;50.882;4.376;2023-01-10T00:46:09;20.63;;;3.65;;
37983;SDS011;64625;50.882;4.376;2023-01-10T00:48:35;20.67;;;3.78;;
37983;SDS011;64625;50.882;4.376;2023-01-10T00:51:02;15.93;;;4.28;;
37983;SDS011;64625;50.882;4.376;2023-01-10T00:53:28;19.42;;;3.63;;
37983;SDS011;64625;50.882;4.376;2023-01-10T00:55:54;27.25;;;4.65;;
37983;SDS011;64625;50.882;4.376;2023-01-10T00:58:21;25.13;;;5.05;;
37983;SDS011;64625;50.882;4.376;2023-01-10T01:00:47;23.50;;;5.72;;
37983;SDS011;64625;50.882;4.376;2023-01-10T01:03:16;18.77;;;4.13;;
37983;SDS011;64625;50.882;4.376;2023-01-10T01:05:44;23.42;;;7.45;;
37983;SDS011;64625;50.882;4.376;2023-01-10T01:08:11;31.67;;;4.63;;
37983;SDS011;64625;50.882;4.376;2023-01-10T01:10:38;26.40;;;3.75;;
37983;SDS011;64625;50.882;4.376;2023-01-10T01:13:07;24.15;;;3.63;;
37983;SDS011;64625;50.882;4.376;2023-01-10T01:15:36;23.23;;;4.55;;
37983;SDS011;64625;50.882;4.376;2023-01-10T01:18:02;18.98;;;4.63;;
37983;SDS011;64625;50.882;4.376;2023-01-10T01:20:29;20.38;;;4.88;;
37983;SDS011;64625;50.882;4.376;2023-01-10T01:22:55;25.52;;;4.45;;
37983;SDS011;64625;50.882;4.376;2023-01-10T01:25:21;23.58;;;4.32;;
37983;SDS011;64625;50.882;4.376;2023-01-10T01:27:47;31.58;;;4.22;;
37983;SDS011;64625;50.882;4.376;2023-01-10T01:30:13;26.33;;;4.10;;
37983;SDS011;64625;50.882;4.376;2023-01-10T01:32:39;40.75;;;5.82;;
37983;SDS011;64625;50.882;4.376;2023-01-10T01:35:06;23.90;;;5.15;;
37983;SDS011;64625;50.882;4.376;2023-01-10T01:37:33;23.08;;;5.13;;
37983;SDS011;64625;50.882;4.376;2023-01-10T01:39:59;32.72;;;4.60;;
37983;SDS011;64625;50.882;4.376;2023-01-10T01:42:32;19.17;;;4.25;;
37983;SDS011;64625;50.882;4.376;2023-01-10T01:47:52;24.35;;;4.70;;
37983;SDS011;64625;50.882;4.376;2023-01-10T01:50:21;37.08;;;4.05;;
37983;SDS011;64625;50.882;4.376;2023-01-10T01:52:52;21.80;;;3.53;;
37983;SDS011;64625;50.882;4.376;2023-01-10T01:55:21;20.75;;;4.40;;
37983;SDS011;64625;50.882;4.376;2023-01-10T01:57:49;27.38;;;5.25;;
37983;SDS011;64625;50.882;4.376;2023-01-10T02:00:16;20.00;;;3.70;;
37983;SDS011;64625;50.882;4.376;2023-01-10T02:02:48;21.08;;;3.50;;
37983;SDS011;64625;50.882;4.376;2023-01-10T02:05:16;22.73;;;4.97;;
37983;SDS011;64625;50.882;4.376;2023-01-10T02:07:46;23.45;;;4.30;;
37983;SDS011;64625;50.882;4.376;2023-01-10T02:10:17;25.95;;;7.38;;
37983;SDS011;64625;50.882;4.376;2023-01-10T02:13:04;19.10;;;4.10;;
37983;SDS011;64625;50.882;4.376;2023-01-10T02:15:31;14.60;;;3.42;;
37983;SDS011;64625;50.882;4.376;2023-01-10T02:17:57;23.40;;;4.28;;
37983;SDS011;64625;50.882;4.376;2023-01-10T02:20:25;26.10;;;4.43;;
37983;SDS011;64625;50.882;4.376;2023-01-10T02:34:01;30.42;;;4.70;;
37983;SDS011;64625;50.882;4.376;2023-01-10T02:37:03;27.70;;;5.13;;
37983;SDS011;64625;50.882;4.376;2023-01-10T02:40:03;23.30;;;4.07;;
37983;SDS011;64625;50.882;4.376;2023-01-10T02:42:48;20.20;;;4.55;;
37983;SDS011;64625;50.882;4.376;2023-01-10T02:45:28;17.85;;;4.28;;
37983;SDS011;64625;50.882;4.376;2023-01-10T02:47:58;30.65;;;4.75;;
37983;SDS011;64625;50.882;4.376;2023-01-10T02:50:29;28.27;;;4.68;;
37983;SDS011;64625;50.882;4.376;2023-01-10T02:53:13;25.42;;;3.90;;
37983;SDS011;64625;50.882;4.376;2023-01-10T03:09:55;37.63;;;5.78;;
37983;SDS011;64625;50.882;4.376;2023-01-10T03:12:30;19.85;;;3.28;;
37983;SDS011;64625;50.882;4.376;2023-01-10T03:15:17;19.67;;;3.65;;
37983;SDS011;64625;50.882;4.376;2023-01-10T03:17:46;22.55;;;4.18;;
37983;SDS011;64625;50.882;4.376;2023-01-10T03:20:16;41.13;;;5.75;;
37983;SDS011;64625;50.882;4.376;2023-01-10T03:22:45;30.55;;;4.70;;
37983;SDS011;64625;50.882;4.376;2023-01-10T03:25:12;27.85;;;5.70;;
37983;SDS011;64625;50.882;4.376;2023-01-10T03:30:30;28.33;;;5.43;;
37983;SDS011;64625;50.882;4.376;2023-01-10T03:33:05;20.65;;;4.57;;
37983;SDS011;64625;50.882;4.376;2023-01-10T03:38:33;30.00;;;5.28;;
37983;SDS011;64625;50.882;4.376;2023-01-10T03:41:30;24.55;;;6.50;;
37983;SDS011;64625;50.882;4.376;2023-01-10T03:43:52;30.20;;;4.43;;
37983;SDS011;64625;50.882;4.376;2023-01-10T03:46:44;31.10;;;7.25;;
37983;SDS011;64625;50.882;4.376;2023-01-10T03:49:21;42.90;;;4.72;;
37983;SDS011;64625;50.882;4.376;2023-01-10T03:51:49;29.85;;;4.43;;
37983;SDS011;64625;50.882;4.376;2023-01-10T03:54:16;36.63;;;6.68;;
37983;SDS011;64625;50.882;4.376;2023-01-10T03:56:42;31.23;;;5.85;;
37983;SDS011;64625;50.882;4.376;2023-01-10T03:59:14;36.10;;;5.25;;
37983;SDS011;64625;50.882;4.376;2023-01-10T04:01:40;37.50;;;6.72;;
37983;SDS011;64625;50.882;4.376;2023-01-10T04:04:06;41.08;;;6.00;;
37983;SDS011;64625;50.882;4.376;2023-01-10T04:06:32;38.67;;;5.25;;
37983;SDS011;64625;50.882;4.376;2023-01-10T04:08:58;31.58;;;5.72;;
37983;SDS011;64625;50.882;4.376;2023-01-10T04:11:23;21.85;;;6.40;;
37983;SDS011;64625;50.882;4.376;2023-01-10T04:13:49;26.95;;;4.68;;
37983;SDS011;64625;50.882;4.376;2023-01-10T04:16:15;40.90;;;6.38;;
37983;SDS011;64625;50.882;4.376;2023-01-10T04:18:41;29.60;;;5.57;;
37983;SDS011;64625;50.882;4.376;2023-01-10T04:21:07;30.65;;;5.43;;
37983;SDS011;64625;50.882;4.376;2023-01-10T04:23:32;29.95;;;5.38;;
37983;SDS011;64625;50.882;4.376;2023-01-10T04:25:58;32.25;;;6.35;;
37983;SDS011;64625;50.882;4.376;2023-01-10T04:28:24;25.55;;;4.28;;
37983;SDS011;64625;50.882;4.376;2023-01-10T04:30:50;38.55;;;5.60;;
37983;SDS011;64625;50.882;4.376;2023-01-10T04:33:15;26.05;;;5.32;;
37983;SDS011;64625;50.882;4.376;2023-01-10T04:35:46;42.78;;;6.55;;
37983;SDS011;64625;50.882;4.376;2023-01-10T04:38:13;32.65;;;5.05;;
37983;SDS011;64625;50.882;4.376;2023-01-10T04:40:40;30.05;;;6.13;;
37983;SDS011;64625;50.882;4.376;2023-01-10T04:43:06;44.70;;;5.32;;
37983;SDS011;64625;50.882;4.376;2023-01-10T04:45:32;25.23;;;5.15;;
37983;SDS011;64625;50.882;4.376;2023-01-10T04:47:58;18.63;;;6.10;;
37983;SDS011;64625;50.882;4.376;2023-01-10T04:50:24;41.75;;;5.38;;
37983;SDS011;64625;50.882;4.376;2023-01-10T04:52:51;28.85;;;4.72;;
37983;SDS011;64625;50.882;4.376;2023-01-10T04:55:18;37.80;;;5.50;;
37983;SDS011;64625;50.882;4.376;2023-01-10T04:57:44;26.17;;;5.25;;
37983;SDS011;64625;50.882;4.376;2023-01-10T05:00:10;33.47;;;4.78;;
37983;SDS011;64625;50.882;4.376;2023-01-10T05:02:36;32.33;;;4.70;;
37983;SDS011;64625;50.882;4.376;2023-01-10T05:05:12;48.92;;;11.20;;
37983;SDS011;64625;50.882;4.376;2023-01-10T05:07:38;29.58;;;4.88;;
37983;SDS011;64625;50.882;4.376;2023-01-10T05:10:05;28.63;;;4.68;;
37983;SDS011;64625;50.882;4.376;2023-01-10T05:12:32;43.40;;;5.93;;
37983;SDS011;64625;50.882;4.376;2023-01-10T05:14:58;43.53;;;7.13;;
37983;SDS011;64625;50.882;4.376;2023-01-10T05:17:23;55.20;;;6.78;;
37983;SDS011;64625;50.882;4.376;2023-01-10T05:19:50;32.25;;;4.68;;
37983;SDS011;64625;50.882;4.376;2023-01-10T05:22:19;39.45;;;4.35;;
37983;SDS011;64625;50.882;4.376;2023-01-10T05:24:44;39.40;;;5.45;;
37983;SDS011;64625;50.882;4.376;2023-01-10T05:27:10;53.38;;;7.15;;
37983;SDS011;64625;50.882;4.376;2023-01-10T05:29:36;38.08;;;5.75;;
37983;SDS011;64625;50.882;4.376;2023-01-10T05:32:02;32.85;;;5.82;;
37983;SDS011;64625;50.882;4.376;2023-01-10T05:34:28;39.20;;;5.43;;
37983;SDS011;64625;50.882;4.376;2023-01-10T05:36:53;31.42;;;6.20;;
37983;SDS011;64625;50.882;4.376;2023-01-10T05:39:19;40.55;;;6.15;;
37983;SDS011;64625;50.882;4.376;2023-01-10T05:41:45;42.05;;;9.75;;
37983;SDS011;64625;50.882;4.376;2023-01-10T05:44:11;41.05;;;6.10;;
37983;SDS011;64625;50.882;4.376;2023-01-10T05:46:37;23.95;;;5.50;;
37983;SDS011;64625;50.882;4.376;2023-01-10T05:49:03;21.42;;;3.88;;
37983;SDS011;64625;50.882;4.376;2023-01-10T05:51:29;50.53;;;5.75;;
37983;SDS011;64625;50.882;4.376;2023-01-10T05:53:55;35.88;;;6.97;;
37983;SDS011;64625;50.882;4.376;2023-01-10T05:56:24;54.92;;;6.45;;
37983;SDS011;64625;50.882;4.376;2023-01-10T05:58:50;38.67;;;7.30;;
37983;SDS011;64625;50.882;4.376;2023-01-10T06:01:16;35.10;;;4.97;;
37983;SDS011;64625;50.882;4.376;2023-01-10T06:03:42;37.08;;;4.70;;
37983;SDS011;64625;50.882;4.376;2023-01-10T06:06:08;33.85;;;3.85;;
37983;SDS011;64625;50.882;4.376;2023-01-10T06:08:35;29.02;;;4.28;;
37983;SDS011;64625;50.882;4.376;2023-01-10T06:11:04;32.08;;;5.82;;
37983;SDS011;64625;50.882;4.376;2023-01-10T06:13:31;26.50;;;4.38;;
37983;SDS011;64625;50.882;4.376;2023-01-10T06:15:58;30.92;;;4.85;;
37983;SDS011;64625;50.882;4.376;2023-01-10T06:18:24;32.10;;;5.88;;
37983;SDS011;64625;50.882;4.376;2023-01-10T06:20:51;28.15;;;4.53;;
37983;SDS011;64625;50.882;4.376;2023-01-10T06:23:17;29.40;;;5.25;;
37983;SDS011;64625;50.882;4.376;2023-01-10T06:25:43;31.73;;;4.85;;
37983;SDS011;64625;50.882;4.376;2023-01-10T06:28:09;34.30;;;7.97;;
37983;SDS011;64625;50.882;4.376;2023-01-10T06:30:37;35.50;;;4.85;;
37983;SDS011;64625;50.882;4.376;2023-01-10T06:33:05;37.67;;;5.20;;
37983;SDS011;64625;50.882;4.376;2023-01-10T06:35:32;35.05;;;5.22;;
37983;SDS011;64625;50.882;4.376;2023-01-10T06:37:59;29.77;;;6.18;;
37983;SDS011;64625;50.882;4.376;2023-01-10T06:40:25;26.00;;;4.85;;
37983;SDS011;64625;50.882;4.376;2023-01-10T06:42:52;37.83;;;5.68;;
37983;SDS011;64625;50.882;4.376;2023-01-10T06:45:18;43.20;;;5.45;;
37983;SDS011;64625;50.882;4.376;2023-01-10T06:47:44;34.17;;;6.13;;
37983;SDS011;64625;50.882;4.376;2023-01-10T06:50:10;36.92;;;6.47;;
37983;SDS011;64625;50.882;4.376;2023-01-10T06:52:37;30.95;;;5.18;;
37983;SDS011;64625;50.882;4.376;2023-01-10T06:55:03;31.92;;;7.80;;
37983;SDS011;64625;50.882;4.376;2023-01-10T06:57:31;32.53;;;5.65;;
37983;SDS011;64625;50.882;4.376;2023-01-10T07:00:03;29.23;;;5.22;;
37983;SDS011;64625;50.882;4.376;2023-01-10T07:02:31;34.75;;;5.55;;
37983;SDS011;64625;50.882;4.376;2023-01-10T07:04:57;36.85;;;5.13;;
37983;SDS011;64625;50.882;4.376;2023-01-10T07:07:22;41.35;;;5.22;;
37983;SDS011;64625;50.882;4.376;2023-01-10T07:09:48;28.27;;;5.07;;
37983;SDS011;64625;50.882;4.376;2023-01-10T07:12:14;38.45;;;5.47;;
37983;SDS011;64625;50.882;4.376;2023-01-10T07:14:40;27.55;;;5.03;;
37983;SDS011;64625;50.882;4.376;2023-01-10T07:17:06;49.85;;;8.43;;
37983;SDS011;64625;50.882;4.376;2023-01-10T07:19:32;26.05;;;4.88;;
37983;SDS011;64625;50.882;4.376;2023-01-10T07:21:57;25.90;;;4.80;;
37983;SDS011;64625;50.882;4.376;2023-01-10T07:24:23;25.27;;;4.32;;
37983;SDS011;64625;50.882;4.376;2023-01-10T07:26:49;17.80;;;3.95;;
37983;SDS011;64625;50.882;4.376;2023-01-10T07:29:15;41.45;;;6.00;;
37983;SDS011;64625;50.882;4.376;2023-01-10T07:31:41;33.13;;;5.40;;
37983;SDS011;64625;50.882;4.376;2023-01-10T07:34:07;25.00;;;4.97;;
37983;SDS011;64625;50.882;4.376;2023-01-10T07:36:33;25.63;;;5.00;;
37983;SDS011;64625;50.882;4.376;2023-01-10T07:39:01;22.90;;;7.10;;
37983;SDS011;64625;50.882;4.376;2023-01-10T07:41:30;29.08;;;6.32;;
37983;SDS011;64625;50.882;4.376;2023-01-10T07:43:55;26.00;;;4.35;;
37983;SDS011;64625;50.882;4.376;2023-01-10T07:46:21;26.70;;;6.05;;
37983;SDS011;64625;50.882;4.376;2023-01-10T07:48:47;33.42;;;5.45;;
37983;SDS011;64625;50.882;4.376;2023-01-10T07:51:13;42.00;;;6.45;;
37983;SDS011;64625;50.882;4.376;2023-01-10T07:53:42;26.20;;;4.95;;
37983;SDS011;64625;50.882;4.376;2023-01-10T07:56:08;28.92;;;4.47;;
37983;SDS011;64625;50.882;4.376;2023-01-10T07:58:34;35.78;;;5.07;;
37983;SDS011;64625;50.882;4.376;2023-01-10T08:01:02;27.75;;;7.68;;
37983;SDS011;64625;50.882;4.376;2023-01-10T08:03:29;46.22;;;7.30;;
37983;SDS011;64625;50.882;4.376;2023-01-10T08:06:01;15.30;;;4.30;;
37983;SDS011;64625;50.882;4.376;2023-01-10T08:08:34;31.88;;;5.30;;
37983;SDS011;64625;50.882;4.376;2023-01-10T08:11:01;28.40;;;5.25;;
37983;SDS011;64625;50.882;4.376;2023-01-10T08:13:27;19.50;;;4.80;;
37983;SDS011;64625;50.882;4.376;2023-01-10T08:15:54;23.55;;;7.65;;
37983;SDS011;64625;50.882;4.376;2023-01-10T08:18:20;37.78;;;4.72;;
37983;SDS011;64625;50.882;4.376;2023-01-10T08:20:51;24.80;;;4.85;;
37983;SDS011;64625;50.882;4.376;2023-01-10T08:23:18;35.30;;;5.57;;
37983;SDS011;64625;50.882;4.376;2023-01-10T08:25:44;23.58;;;4.32;;
37983;SDS011;64625;50.882;4.376;2023-01-10T08:28:11;41.20;;;5.70;;
37983;SDS011;64625;50.882;4.376;2023-01-10T08:30:37;28.23;;;5.80;;
37983;SDS011;64625;50.882;4.376;2023-01-10T08:33:04;33.35;;;5.05;;
37983;SDS011;64625;50.882;4.376;2023-01-10T08:35:35;34.95;;;4.95;;
37983;SDS011;64625;50.882;4.376;2023-01-10T08:38:02;39.30;;;4.55;;
37983;SDS011;64625;50.882;4.376;2023-01-10T08:40:28;29.63;;;4.57;;
37983;SDS011;64625;50.882;4.376;2023-01-10T08:42:58;33.55;;;4.80;;
37983;SDS011;64625;50.882;4.376;2023-01-10T08:45:24;39.47;;;6.22;;
37983;SDS011;64625;50.882;4.376;2023-01-10T08:47:52;20.80;;;5.05;;
37983;SDS011;64625;50.882;4.376;2023-01-10T08:50:18;33.03;;;6.30;;
37983;SDS011;64625;50.882;4.376;2023-01-10T08:52:44;22.05;;;5.20;;
37983;SDS011;64625;50.882;4.376;2023-01-10T08:55:10;48.28;;;5.93;;
37983;SDS011;64625;50.882;4.376;2023-01-10T08:57:36;35.30;;;4.95;;
37983;SDS011;64625;50.882;4.376;2023-01-10T09:00:03;21.10;;;5.65;;
37983;SDS011;64625;50.882;4.376;2023-01-10T09:02:29;28.73;;;5.13;;
37983;SDS011;64625;50.882;4.376;2023-01-10T09:04:55;23.67;;;4.57;;
37983;SDS011;64625;50.882;4.376;2023-01-10T09:07:21;34.13;;;5.78;;
37983;SDS011;64625;50.882;4.376;2023-01-10T09:09:47;38.90;;;5.13;;
37983;SDS011;64625;50.882;4.376;2023-01-10T09:12:13;25.73;;;4.95;;
37983;SDS011;64625;50.882;4.376;2023-01-10T09:14:58;28.17;;;5.75;;
37983;SDS011;64625;50.882;4.376;2023-01-10T09:17:25;33.92;;;9.13;;
37983;SDS011;64625;50.882;4.376;2023-01-10T09:19:51;28.02;;;6.38;;
37983;SDS011;64625;50.882;4.376;2023-01-10T09:22:17;38.28;;;6.38;;
37983;SDS011;64625;50.882;4.376;2023-01-10T09:24:43;44.40;;;6.10;;
37983;SDS011;64625;50.882;4.376;2023-01-10T09:27:09;30.38;;;6.80;;
37983;SDS011;64625;50.882;4.376;2023-01-10T09:29:35;40.03;;;8.23;;
37983;SDS011;64625;50.882;4.376;2023-01-10T09:32:01;46.25;;;5.65;;
37983;SDS011;64625;50.882;4.376;2023-01-10T09:34:27;33.60;;;6.70;;
37983;SDS011;64625;50.882;4.376;2023-01-10T09:36:53;29.10;;;6.47;;
37983;SDS011;64625;50.882;4.376;2023-01-10T09:39:19;25.70;;;5.15;;
37983;SDS011;64625;50.882;4.376;2023-01-10T09:49:47;32.60;;;7.82;;
37983;SDS011;64625;50.882;4.376;2023-01-10T09:52:40;25.25;;;6.25;;
37983;SDS011;64625;50.882;4.376;2023-01-10T09:55:32;32.13;;;5.03;;
37983;SDS011;64625;50.882;4.376;2023-01-10T09:58:03;30.90;;;6.32;;
37983;SDS011;64625;50.882;4.376;2023-01-10T10:00:49;30.48;;;7.00;;
37983;SDS011;64625;50.882;4.376;2023-01-10T10:03:41;25.35;;;5.13;;
37983;SDS011;64625;50.882;4.376;2023-01-10T10:06:22;31.10;;;5.63;;
37983;SDS011;64625;50.882;4.376;2023-01-10T10:08:48;32.13;;;5.40;;
37983;SDS011;64625;50.882;4.376;2023-01-10T10:16:35;33.80;;;4.45;;
37983;SDS011;64625;50.882;4.376;2023-01-10T10:35:56;33.45;;;6.40;;
37983;SDS011;64625;50.882;4.376;2023-01-10T10:38:29;26.33;;;4.80;;
37983;SDS011;64625;50.882;4.376;2023-01-10T10:43:29;33.80;;;7.38;;
37983;SDS011;64625;50.882;4.376;2023-01-10T10:46:03;22.17;;;4.38;;
37983;SDS011;64625;50.882;4.376;2023-01-10T10:48:41;25.02;;;7.20;;
37983;SDS011;64625;50.882;4.376;2023-01-10T10:51:18;25.02;;;5.63;;
37983;SDS011;64625;50.882;4.376;2023-01-10T10:53:46;28.58;;;5.15;;
37983;SDS011;64625;50.882;4.376;2023-01-10T10:56:13;35.13;;;5.07;;
37983;SDS011;64625;50.882;4.376;2023-01-10T10:58:43;32.42;;;4.88;;
37983;SDS011;64625;50.882;4.376;2023-01-10T11:01:12;36.35;;;4.55;;
37983;SDS011;64625;50.882;4.376;2023-01-10T11:06:46;26.63;;;5.32;;
37983;SDS011;64625;50.882;4.376;2023-01-10T11:09:18;26.27;;;9.10;;
37983;SDS011;64625;50.882;4.376;2023-01-10T11:11:54;22.02;;;4.50;;
37983;SDS011;64625;50.882;4.376;2023-01-10T11:17:30;34.33;;;5.63;;
37983;SDS011;64625;50.882;4.376;2023-01-10T11:20:02;37.00;;;5.53;;
37983;SDS011;64625;50.882;4.376;2023-01-10T11:22:35;40.22;;;4.85;;
37983;SDS011;64625;50.882;4.376;2023-01-10T11:25:20;28.27;;;6.72;;
37983;SDS011;64625;50.882;4.376;2023-01-10T11:27:51;33.65;;;5.65;;
37983;SDS011;64625;50.882;4.376;2023-01-10T11:30:31;43.78;;;6.32;;
37983;SDS011;64625;50.882;4.376;2023-01-10T11:33:01;26.98;;;5.20;;
37983;SDS011;64625;50.882;4.376;2023-01-10T11:35:33;23.90;;;4.60;;
37983;SDS011;64625;50.882;4.376;2023-01-10T11:38:08;24.70;;;6.82;;
37983;SDS011;64625;50.882;4.376;2023-01-10T11:41:01;21.48;;;5.88;;
37983;SDS011;64625;50.882;4.376;2023-01-10T11:46:03;22.70;;;6.05;;
37983;SDS011;64625;50.882;4.376;2023-01-10T11:51:44;31.50;;;5.18;;
37983;SDS011;64625;50.882;4.376;2023-01-10T11:54:18;33.75;;;7.10;;
37983;SDS011;64625;50.882;4.376;2023-01-10T11:56:57;26.85;;;4.90;;
37983;SDS011;64625;50.882;4.376;2023-01-10T11:59:27;31.05;;;5.40;;
37983;SDS011;64625;50.882;4.376;2023-01-10T12:02:01;32.45;;;5.45;;
37983;SDS011;64625;50.882;4.376;2023-01-10T12:04:38;33.05;;;4.82;;
37983;SDS011;64625;50.882;4.376;2023-01-10T12:07:08;29.30;;;6.03;;
37983;SDS011;64625;50.882;4.376;2023-01-10T12:09:37;30.60;;;7.07;;
37983;SDS011;64625;50.882;4.376;2023-01-10T12:12:19;30.63;;;5.68;;
37983;SDS011;64625;50.882;4.376;2023-01-10T12:14:48;31.80;;;5.57;;
37983;SDS011;64625;50.882;4.376;2023-01-10T12:17:25;33.80;;;6.40;;
37983;SDS011;64625;50.882;4.376;2023-01-10T12:19:53;24.25;;;4.43;;
37983;SDS011;64625;50.882;4.376;2023-01-10T12:22:24;36.13;;;6.95;;
37983;SDS011;64625;50.882;4.376;2023-01-10T12:25:08;35.67;;;5.05;;
37983;SDS011;64625;50.882;4.376;2023-01-10T12:27:48;20.27;;;4.25;;
37983;SDS011;64625;50.882;4.376;2023-01-10T12:30:23;27.05;;;6.18;;
37983;SDS011;64625;50.882;4.376;2023-01-10T12:33:05;32.72;;;6.00;;
37983;SDS011;64625;50.882;4.376;2023-01-10T12:35:44;30.30;;;5.43;;
37983;SDS011;64625;50.882;4.376;2023-01-10T12:44:39;20.30;;;4.55;;
37983;SDS011;64625;50.882;4.376;2023-01-10T12:47:28;26.20;;;5.30;;
37983;SDS011;64625;50.882;4.376;2023-01-10T12:50:09;26.88;;;3.92;;
37983;SDS011;64625;50.882;4.376;2023-01-10T12:52:58;29.00;;;4.47;;
37983;SDS011;64625;50.882;4.376;2023-01-10T12:55:44;22.55;;;5.07;;
37983;SDS011;64625;50.882;4.376;2023-01-10T12:58:54;22.55;;;4.70;;
37983;SDS011;64625;50.882;4.376;2023-01-10T13:01:22;23.35;;;5.15;;
37983;SDS011;64625;50.882;4.376;2023-01-10T13:03:58;29.77;;;5.28;;
37983;SDS011;64625;50.882;4.376;2023-01-10T13:06:42;31.52;;;5.93;;
37983;SDS011;64625;50.882;4.376;2023-01-10T13:09:13;24.33;;;4.53;;
37983;SDS011;64625;50.882;4.376;2023-01-10T13:11:43;16.88;;;4.07;;
37983;SDS011;64625;50.882;4.376;2023-01-10T13:14:11;16.38;;;5.32;;
37983;SDS011;64625;50.882;4.376;2023-01-10T13:16:44;20.77;;;4.38;;
37983;SDS011;64625;50.882;4.376;2023-01-10T13:21:46;26.20;;;3.92;;
37983;SDS011;64625;50.882;4.376;2023-01-10T13:26:45;24.58;;;4.40;;
37983;SDS011;64625;50.882;4.376;2023-01-10T13:32:19;25.90;;;3.63;;
37983;SDS011;64625;50.882;4.376;2023-01-10T13:37:44;15.65;;;5.72;;
37983;SDS011;64625;50.882;4.376;2023-01-10T13:40:19;23.67;;;4.03;;
37983;SDS011;64625;50.882;4.376;2023-01-10T13:51:21;23.58;;;4.70;;
37983;SDS011;64625;50.882;4.376;2023-01-10T13:59:07;25.40;;;5.60;;
37983;SDS011;64625;50.882;4.376;2023-01-10T14:01:43;19.35;;;5.65;;
37983;SDS011;64625;50.882;4.376;2023-01-10T14:07:05;23.80;;;6.93;;
37983;SDS011;64625;50.882;4.376;2023-01-10T14:09:43;19.98;;;3.85;;
37983;SDS011;64625;50.882;4.376;2023-01-10T14:14:54;17.98;;;4.15;;
37983;SDS011;64625;50.882;4.376;2023-01-10T14:17:28;23.67;;;4.40;;
37983;SDS011;64625;50.882;4.376;2023-01-10T14:20:01;17.50;;;3.72;;
37983;SDS011;64625;50.882;4.376;2023-01-10T14:22:29;21.20;;;4.15;;
37983;SDS011;64625;50.882;4.376;2023-01-10T14:25:00;18.33;;;3.60;;
37983;SDS011;64625;50.882;4.376;2023-01-10T14:27:49;17.92;;;4.55;;
37983;SDS011;64625;50.882;4.376;2023-01-10T14:30:17;19.10;;;4.20;;
37983;SDS011;64625;50.882;4.376;2023-01-10T14:33:04;15.05;;;2.92;;
37983;SDS011;64625;50.882;4.376;2023-01-10T14:35:45;10.82;;;3.70;;
37983;SDS011;64625;50.882;4.376;2023-01-10T14:38:17;13.90;;;2.65;;
37983;SDS011;64625;50.882;4.376;2023-01-10T14:40:49;28.73;;;6.00;;
37983;SDS011;64625;50.882;4.376;2023-01-10T14:43:22;12.70;;;2.72;;
37983;SDS011;64625;50.882;4.376;2023-01-10T14:48:29;15.35;;;3.45;;
37983;SDS011;64625;50.882;4.376;2023-01-10T14:54:00;6.30;;;2.00;;
37983;SDS011;64625;50.882;4.376;2023-01-10T14:56:35;13.90;;;2.63;;
37983;SDS011;64625;50.882;4.376;2023-01-10T15:02:01;12.65;;;3.88;;
37983;SDS011;64625;50.882;4.376;2023-01-10T15:04:38;14.27;;;2.78;;
37983;SDS011;64625;50.882;4.376;2023-01-10T15:07:18;6.60;;;1.95;;
37983;SDS011;64625;50.882;4.376;2023-01-10T15:09:47;8.07;;;2.53;;
37983;SDS011;64625;50.882;4.376;2023-01-10T15:12:16;8.98;;;2.30;;
37983;SDS011;64625;50.882;4.376;2023-01-10T15:14:44;9.82;;;1.85;;
37983;SDS011;64625;50.882;4.376;2023-01-10T15:17:12;7.38;;;2.25;;
37983;SDS011;64625;50.882;4.376;2023-01-10T15:19:42;9.77;;;2.22;;
37983;SDS011;64625;50.882;4.376;2023-01-10T15:22:15;5.20;;;1.98;;
37983;SDS011;64625;50.882;4.376;2023-01-10T15:27:28;9.70;;;2.08;;
37983;SDS011;64625;50.882;4.376;2023-01-10T15:29:54;6.82;;;3.53;;
37983;SDS011;64625;50.882;4.376;2023-01-10T15:32:34;4.68;;;1.55;;
37983;SDS011;64625;50.882;4.376;2023-01-10T15:35:04;4.75;;;1.73;;
37983;SDS011;64625;50.882;4.376;2023-01-10T15:37:36;6.70;;;1.83;;
37983;SDS011;64625;50.882;4.376;2023-01-10T15:40:06;4.95;;;2.05;;
37983;SDS011;64625;50.882;4.376;2023-01-10T15:42:44;7.32;;;1.63;;
37983;SDS011;64625;50.882;4.376;2023-01-10T15:45:28;8.18;;;1.20;;
37983;SDS011;64625;50.882;4.376;2023-01-10T15:48:01;4.88;;;1.85;;
37983;SDS011;64625;50.882;4.376;2023-01-10T15:50:30;2.15;;;1.63;;
37983;SDS011;64625;50.882;4.376;2023-01-10T15:52:59;4.55;;;1.50;;
37983;SDS011;64625;50.882;4.376;2023-01-10T16:01:11;3.83;;;1.60;;
37983;SDS011;64625;50.882;4.376;2023-01-10T16:03:49;2.28;;;1.58;;
37983;SDS011;64625;50.882;4.376;2023-01-10T16:09:00;6.45;;;2.33;;
37983;SDS011;64625;50.882;4.376;2023-01-10T16:11:44;2.15;;;1.80;;
37983;SDS011;64625;50.882;4.376;2023-01-10T16:14:34;5.72;;;1.85;;
37983;SDS011;64625;50.882;4.376;2023-01-10T16:17:01;2.33;;;1.70;;
37983;SDS011;64625;50.882;4.376;2023-01-10T16:19:28;2.53;;;1.35;;
37983;SDS011;64625;50.882;4.376;2023-01-10T16:21:55;10.27;;;2.05;;
37983;SDS011;64625;50.882;4.376;2023-01-10T16:24:24;2.70;;;1.48;;
37983;SDS011;64625;50.882;4.376;2023-01-10T16:26:54;9.15;;;2.03;;
37983;SDS011;64625;50.882;4.376;2023-01-10T16:29:22;5.88;;;2.25;;
37983;SDS011;64625;50.882;4.376;2023-01-10T16:31:48;4.82;;;2.10;;
37983;SDS011;64625;50.882;4.376;2023-01-10T16:34:16;2.90;;;1.95;;
37983;SDS011;64625;50.882;4.376;2023-01-10T16:36:42;4.93;;;1.85;;
37983;SDS011;64625;50.882;4.376;2023-01-10T16:39:13;6.95;;;2.40;;
37983;SDS011;64625;50.882;4.376;2023-01-10T16:41:43;4.22;;;2.20;;
37983;SDS011;64625;50.882;4.376;2023-01-10T16:44:29;4.30;;;1.90;;
37983;SDS011;64625;50.882;4.376;2023-01-10T16:46:56;2.35;;;2.05;;
37983;SDS011;64625;50.882;4.376;2023-01-10T16:49:22;3.63;;;2.17;;
37983;SDS011;64625;50.882;4.376;2023-01-10T16:51:48;2.45;;;2.03;;
37983;SDS011;64625;50.882;4.376;2023-01-10T16:54:15;3.25;;;1.80;;
37983;SDS011;64625;50.882;4.376;2023-01-10T16:56:46;5.30;;;1.80;;
37983;SDS011;64625;50.882;4.376;2023-01-10T16:59:13;2.25;;;1.95;;
37983;SDS011;64625;50.882;4.376;2023-01-10T17:01:52;3.03;;;1.98;;
37983;SDS011;64625;50.882;4.376;2023-01-10T17:04:21;4.13;;;1.92;;
37983;SDS011;64625;50.882;4.376;2023-01-10T17:06:48;4.72;;;1.70;;
37983;SDS011;64625;50.882;4.376;2023-01-10T17:09:17;6.70;;;3.75;;